Time;durP1;ratioP1;P1;durP2;ratioP2;P2;SDS_P1;SDS_P2;PMS_P1;PMS_P2;Temp;Humidity;BMP_temperature;BMP_pressure;BME280_temperature;BME280_humidity;BME280_pressure;Samples;Min_cycle;Max_cycle;Signal;HPM_P1;HPM_P2
2022/10/12 00:00:06;;;;;;;13.60;8.30;;;6.70;99.90;;;;;;5024930;28;20223;-46
2022/10/12 00:02:39;;;;;;;10.27;7.87;;;6.70;99.90;;;;;;5038490;28;20213;-47
2022/10/12 00:05:07;;;;;;;12.40;7.80;;;6.70;99.90;;;;;;5038499;28;20193;-47
2022/10/12 00:07:35;;;;;;;13.07;8.67;;;6.70;99.90;;;;;;5039286;28;20230;-46
2022/10/12 00:10:02;;;;;;;9.17;7.07;;;6.70;99.90;;;;;;5039997;28;20848;-48
2022/10/12 00:12:30;;;;;;;11.73;7.57;;;6.70;99.90;;;;;;5043963;28;20727;-47
2022/10/12 00:14:56;;;;;;;11.70;7.70;;;6.80;99.90;;;;;;5027004;28;20672;-50
2022/10/12 00:17:23;;;;;;;9.90;7.23;;;6.80;99.90;;;;;;5035609;28;20207;-46
2022/10/12 00:19:50;;;;;;;11.07;7.83;;;6.80;99.90;;;;;;5041892;28;20226;-50
2022/10/12 00:22:17;;;;;;;11.27;7.20;;;6.80;99.90;;;;;;5037441;28;20211;-47
2022/10/12 00:24:43;;;;;;;11.97;6.73;;;6.80;99.90;;;;;;5042487;28;20195;-49
2022/10/12 00:27:10;;;;;;;9.00;6.63;;;6.80;99.90;;;;;;5040811;28;20198;-46
2022/10/12 00:29:38;;;;;;;11.43;6.93;;;6.80;99.90;;;;;;5042523;28;20230;-46
2022/10/12 00:32:05;;;;;;;9.43;6.30;;;6.80;99.90;;;;;;5023412;28;20308;-47
2022/10/12 00:34:32;;;;;;;9.03;6.70;;;6.80;99.90;;;;;;5036727;28;20211;-47
2022/10/12 00:36:58;;;;;;;10.20;6.50;;;6.80;99.90;;;;;;5040054;28;20721;-50
2022/10/12 00:39:25;;;;;;;10.30;6.60;;;6.80;99.90;;;;;;5038824;28;20219;-49
2022/10/12 00:41:52;;;;;;;11.13;6.73;;;6.90;99.90;;;;;;5041282;28;20954;-45
2022/10/12 00:44:37;;;;;;;11.30;6.40;;;6.90;99.90;;;;;;5041531;28;20291;-50
2022/10/12 00:47:12;;;;;;;9.97;5.97;;;7.00;99.90;;;;;;5024643;28;20207;-44
2022/10/12 00:49:39;;;;;;;8.17;6.13;;;7.00;99.90;;;;;;5037991;28;20589;-45
2022/10/12 00:52:10;;;;;;;9.17;6.30;;;7.00;99.90;;;;;;5039900;28;20187;-46
2022/10/12 00:54:40;;;;;;;6.83;6.03;;;7.00;99.90;;;;;;5035667;28;20578;-45
2022/10/12 00:57:09;;;;;;;12.20;6.57;;;7.10;99.90;;;;;;5039603;28;20198;-49
2022/10/12 00:59:39;;;;;;;7.80;5.77;;;7.10;99.90;;;;;;5043545;28;20211;-45
2022/10/12 01:02:08;;;;;;;8.90;6.13;;;7.00;99.90;;;;;;5023955;28;20210;-47
2022/10/12 01:04:35;;;;;;;11.67;6.20;;;7.00;99.90;;;;;;5038825;28;20214;-45
2022/10/12 01:07:02;;;;;;;11.30;6.23;;;7.00;99.90;;;;;;5043891;28;20179;-47
2022/10/12 01:09:30;;;;;;;7.77;6.77;;;7.00;99.90;;;;;;5042841;28;20215;-45
2022/10/12 01:11:57;;;;;;;12.73;7.03;;;7.00;99.90;;;;;;5043987;28;20198;-45
2022/10/12 01:14:24;;;;;;;12.00;6.60;;;7.00;99.90;;;;;;5046165;28;20592;-45
2022/10/12 01:16:55;;;;;;;11.37;6.60;;;7.00;99.90;;;;;;5036022;28;20543;-50
2022/10/12 01:19:43;;;;;;;9.10;7.50;;;7.00;99.90;;;;;;5038654;28;20242;-46
2022/10/12 01:22:12;;;;;;;10.60;7.20;;;7.00;99.90;;;;;;5044322;28;20527;-47
2022/10/12 01:24:49;;;;;;;13.07;7.57;;;7.10;99.90;;;;;;5046502;28;20206;-45
2022/10/12 01:27:33;;;;;;;10.00;6.47;;;7.00;99.90;;;;;;5042766;28;20190;-46
2022/10/12 01:30:10;;;;;;;11.17;6.70;;;7.00;99.90;;;;;;5043329;28;20215;-45
2022/10/12 01:32:49;;;;;;;10.00;7.00;;;7.00;99.90;;;;;;5031640;28;20215;-45
2022/10/12 01:35:21;;;;;;;9.43;6.70;;;7.00;99.90;;;;;;5038782;28;20199;-47
2022/10/12 01:37:56;;;;;;;7.50;6.60;;;7.10;99.90;;;;;;5044866;28;20191;-51
2022/10/12 01:40:30;;;;;;;6.80;5.63;;;7.20;99.90;;;;;;5046547;28;20253;-45
2022/10/12 01:42:58;;;;;;;8.70;6.07;;;7.20;99.90;;;;;;5038417;28;20257;-48
2022/10/12 01:45:26;;;;;;;14.80;6.80;;;7.20;99.90;;;;;;5044411;28;20203;-45
2022/10/12 01:47:55;;;;;;;9.03;6.60;;;7.20;99.90;;;;;;5028865;28;20211;-46
2022/10/12 01:50:26;;;;;;;10.37;6.27;;;7.20;99.90;;;;;;5040564;28;20230;-46
2022/10/12 01:53:01;;;;;;;11.77;5.80;;;7.20;99.90;;;;;;5044165;28;20214;-46
2022/10/12 01:55:37;;;;;;;9.33;5.90;;;7.20;99.90;;;;;;5045901;28;20202;-47
2022/10/12 01:58:21;;;;;;;7.70;5.77;;;7.20;99.90;;;;;;5035867;28;20531;-46
2022/10/12 02:00:58;;;;;;;10.17;6.17;;;7.30;99.90;;;;;;5045004;28;20202;-51
2022/10/12 02:03:34;;;;;;;7.43;5.40;;;7.30;99.90;;;;;;5030381;28;20214;-46
2022/10/12 02:06:06;;;;;;;11.47;6.03;;;7.40;99.90;;;;;;5036379;28;20203;-47
2022/10/12 02:08:37;;;;;;;7.03;5.93;;;7.40;99.90;;;;;;5046293;28;20212;-47
2022/10/12 02:11:08;;;;;;;9.00;5.20;;;7.40;99.90;;;;;;5042541;28;20241;-46
2022/10/12 02:13:39;;;;;;;7.37;6.03;;;7.40;99.90;;;;;;5039634;28;20628;-47
2022/10/12 02:16:12;;;;;;;6.70;5.20;;;7.40;99.90;;;;;;5042730;28;20194;-45
2022/10/12 02:18:43;;;;;;;10.13;5.80;;;7.50;99.90;;;;;;5045647;28;20195;-46
2022/10/12 02:21:12;;;;;;;7.00;5.60;;;7.50;99.90;;;;;;5027588;28;20205;-48
2022/10/12 02:23:39;;;;;;;7.97;5.33;;;7.50;99.90;;;;;;5043928;28;20196;-49
2022/10/12 02:26:08;;;;;;;7.97;4.17;;;7.50;99.90;;;;;;5042336;28;20211;-46
2022/10/12 02:28:37;;;;;;;8.77;5.37;;;7.50;99.90;;;;;;5041110;28;20215;-47
2022/10/12 02:31:11;;;;;;;9.27;5.40;;;7.60;99.90;;;;;;5042426;28;20435;-48
2022/10/12 02:33:42;;;;;;;8.40;4.97;;;7.60;99.90;;;;;;5044925;28;20191;-47
2022/10/12 02:36:12;;;;;;;9.67;5.50;;;7.60;99.90;;;;;;5022385;28;20207;-47
2022/10/12 02:38:43;;;;;;;7.63;5.70;;;7.70;99.90;;;;;;5039677;28;20209;-46
2022/10/12 02:41:15;;;;;;;9.33;5.40;;;7.70;99.90;;;;;;5042955;28;20322;-46
2022/10/12 02:43:45;;;;;;;12.27;4.90;;;7.70;99.90;;;;;;5044922;28;20230;-48
2022/10/12 02:46:15;;;;;;;9.07;4.67;;;7.70;99.90;;;;;;5039226;28;20202;-49
2022/10/12 02:48:44;;;;;;;6.33;4.23;;;7.80;99.90;;;;;;5044743;28;20219;-48
2022/10/12 02:51:11;;;;;;;7.23;4.70;;;7.90;99.90;;;;;;5027505;28;20204;-49
2022/10/12 02:53:39;;;;;;;8.03;4.70;;;7.90;99.90;;;;;;5038186;28;20199;-46
2022/10/12 02:56:09;;;;;;;8.53;5.07;;;7.90;99.90;;;;;;5041936;28;20183;-47
2022/10/12 02:58:36;;;;;;;10.17;5.53;;;8.00;99.90;;;;;;5045690;28;20191;-45
2022/10/12 03:01:03;;;;;;;5.83;4.73;;;8.00;99.90;;;;;;5036717;28;20202;-48
2022/10/12 03:03:31;;;;;;;9.00;4.40;;;8.10;99.90;;;;;;5044224;28;20192;-47
2022/10/12 03:05:58;;;;;;;12.67;4.30;;;8.10;99.90;;;;;;5028273;28;20191;-48
2022/10/12 03:08:25;;;;;;;7.17;4.90;;;8.10;99.90;;;;;;5039610;28;20203;-47
2022/10/12 03:10:52;;;;;;;5.27;4.20;;;8.20;99.90;;;;;;5041883;28;20669;-49
2022/10/12 03:13:19;;;;;;;6.80;4.40;;;8.20;99.90;;;;;;5043022;28;20910;-46
2022/10/12 03:15:45;;;;;;;8.50;3.90;;;8.30;99.90;;;;;;5039154;28;20611;-51
2022/10/12 03:18:12;;;;;;;9.20;4.27;;;8.30;99.90;;;;;;5042627;28;20203;-46
2022/10/12 03:20:41;;;;;;;7.43;4.97;;;8.30;99.90;;;;;;5038421;28;20258;-50
2022/10/12 03:23:08;;;;;;;8.47;4.80;;;8.30;99.90;;;;;;5026297;28;20211;-48
2022/10/12 03:25:35;;;;;;;9.20;5.30;;;8.40;99.90;;;;;;5039020;28;20199;-46
2022/10/12 03:28:02;;;;;;;10.00;4.57;;;8.40;99.90;;;;;;5040691;28;20188;-47
2022/10/12 03:30:28;;;;;;;12.17;4.50;;;8.40;99.90;;;;;;5041933;28;20704;-47
2022/10/12 03:32:55;;;;;;;9.20;4.70;;;8.50;99.90;;;;;;5035817;28;20203;-48
2022/10/12 03:35:22;;;;;;;10.63;5.67;;;8.50;99.90;;;;;;5044007;28;20202;-47
2022/10/12 03:37:50;;;;;;;6.30;5.37;;;8.50;99.90;;;;;;5035493;28;20200;-50
2022/10/12 03:40:17;;;;;;;7.03;4.80;;;8.50;99.90;;;;;;5032743;28;20439;-47
2022/10/12 03:42:44;;;;;;;12.80;4.67;;;8.50;99.90;;;;;;5042960;28;20226;-49
2022/10/12 03:45:11;;;;;;;9.60;4.40;;;8.50;99.90;;;;;;5040182;28;20384;-46
2022/10/12 03:47:38;;;;;;;7.00;4.67;;;8.60;99.90;;;;;;5039627;28;20207;-46
2022/10/12 03:50:06;;;;;;;7.70;4.60;;;8.60;99.90;;;;;;5040711;28;20226;-48
2022/10/12 03:52:33;;;;;;;6.97;4.60;;;8.60;99.90;;;;;;5044899;28;20535;-46
2022/10/12 03:55:01;;;;;;;7.83;4.40;;;8.60;99.90;;;;;;5023943;28;20210;-47
2022/10/12 03:57:28;;;;;;;6.33;5.10;;;8.70;99.90;;;;;;5037924;28;20572;-46
2022/10/12 03:59:56;;;;;;;6.13;4.57;;;8.70;99.90;;;;;;5040954;28;20225;-49
2022/10/12 04:02:22;;;;;;;10.70;5.13;;;8.70;99.90;;;;;;5038755;28;20199;-46
2022/10/12 04:04:50;;;;;;;10.10;4.30;;;8.70;99.90;;;;;;5041406;28;20192;-47
2022/10/12 04:07:16;;;;;;;12.60;4.57;;;8.70;99.90;;;;;;5042434;28;20191;-49
2022/10/12 04:09:43;;;;;;;8.33;4.47;;;8.80;99.90;;;;;;5024349;28;20250;-52
2022/10/12 04:12:11;;;;;;;10.03;4.57;;;8.80;99.90;;;;;;5042551;28;20191;-46
2022/10/12 04:14:39;;;;;;;9.07;4.63;;;8.80;99.90;;;;;;5039985;28;20552;-47
2022/10/12 04:17:05;;;;;;;10.10;4.77;;;8.80;99.90;;;;;;5038652;28;20209;-46
2022/10/12 04:19:32;;;;;;;9.40;4.93;;;8.80;99.90;;;;;;5027063;28;20231;-48
2022/10/12 04:21:59;;;;;;;11.70;5.13;;;8.80;99.90;;;;;;5042009;28;20209;-51
2022/10/12 04:24:27;;;;;;;12.17;5.70;;;8.90;99.90;;;;;;5033949;28;20684;-47
2022/10/12 04:26:54;;;;;;;12.20;5.17;;;8.80;99.90;;;;;;5030298;28;20203;-47
2022/10/12 04:29:22;;;;;;;6.83;4.40;;;8.90;99.90;;;;;;5038379;28;20223;-46
2022/10/12 04:31:48;;;;;;;5.37;4.63;;;8.90;99.90;;;;;;5034310;28;20279;-46
2022/10/12 04:34:15;;;;;;;9.20;5.10;;;8.90;99.90;;;;;;5033173;28;20229;-47
2022/10/12 04:36:41;;;;;;;7.10;4.40;;;8.90;99.90;;;;;;5038714;28;20191;-46
2022/10/12 04:39:09;;;;;;;6.97;4.90;;;8.90;99.90;;;;;;5042716;28;20227;-47
2022/10/12 04:41:38;;;;;;;6.30;4.37;;;8.80;99.90;;;;;;5024928;28;20207;-46
2022/10/12 04:44:05;;;;;;;9.03;4.50;;;8.80;99.90;;;;;;5039799;28;20203;-47
2022/10/12 04:46:33;;;;;;;9.17;4.87;;;8.80;99.90;;;;;;5038224;28;20196;-49
2022/10/12 04:49:00;;;;;;;8.20;4.93;;;8.70;99.90;;;;;;5032047;28;20226;-48
2022/10/12 04:51:27;;;;;;;9.10;4.53;;;8.60;99.90;;;;;;5037952;28;20199;-48
2022/10/12 04:53:54;;;;;;;8.80;4.97;;;8.60;99.90;;;;;;5039194;28;20202;-46
2022/10/12 04:56:21;;;;;;;7.60;4.27;;;8.60;99.90;;;;;;5027997;28;20199;-46
2022/10/12 04:58:48;;;;;;;5.63;4.30;;;8.50;99.90;;;;;;5036567;28;20219;-46
2022/10/12 05:01:15;;;;;;;6.90;4.63;;;8.50;99.90;;;;;;5042986;28;20203;-47
2022/10/12 05:03:42;;;;;;;12.97;5.10;;;8.40;99.90;;;;;;5032480;28;20226;-49
2022/10/12 05:06:10;;;;;;;12.63;4.80;;;8.40;99.90;;;;;;5032563;28;20203;-47
2022/10/12 05:08:37;;;;;;;7.10;4.00;;;8.30;99.90;;;;;;5038694;28;20303;-49
2022/10/12 05:11:04;;;;;;;9.13;4.70;;;8.30;99.90;;;;;;5025344;28;20225;-48
2022/10/12 05:13:31;;;;;;;5.77;4.20;;;8.30;99.90;;;;;;5039733;28;20210;-49
2022/10/12 05:15:58;;;;;;;6.83;4.43;;;8.20;99.90;;;;;;5040680;28;20191;-47
2022/10/12 05:18:25;;;;;;;8.60;4.00;;;8.20;99.90;;;;;;5037562;28;20276;-45
2022/10/12 05:20:54;;;;;;;7.53;4.90;;;8.10;99.90;;;;;;5029664;28;20217;-46
2022/10/12 05:23:20;;;;;;;9.43;4.23;;;8.10;99.90;;;;;;5042098;28;20195;-47
2022/10/12 05:25:47;;;;;;;5.93;3.60;;;8.00;99.90;;;;;;5039427;28;20198;-48
2022/10/12 05:28:14;;;;;;;7.93;4.20;;;8.00;99.90;;;;;;5027609;28;20288;-47
2022/10/12 05:30:41;;;;;;;7.83;4.07;;;8.00;99.90;;;;;;5038022;28;20234;-49
2022/10/12 05:33:08;;;;;;;6.73;4.00;;;8.00;99.90;;;;;;5036797;28;20235;-48
2022/10/12 05:35:35;;;;;;;6.47;3.70;;;7.90;99.90;;;;;;5038427;28;20203;-52
2022/10/12 05:38:03;;;;;;;9.80;4.43;;;7.90;99.90;;;;;;5034820;28;20221;-47
2022/10/12 05:40:30;;;;;;;9.50;4.33;;;7.70;99.90;;;;;;5041451;28;20203;-50
2022/10/12 05:42:59;;;;;;;7.00;4.37;;;7.80;99.90;;;;;;5024952;28;20203;-48
2022/10/12 05:45:25;;;;;;;11.83;4.57;;;7.70;99.90;;;;;;5041021;28;20199;-48
2022/10/12 05:47:52;;;;;;;7.37;3.90;;;7.70;99.90;;;;;;5033760;28;20269;-50
2022/10/12 05:50:20;;;;;;;8.83;4.20;;;7.60;99.90;;;;;;5043124;28;20306;-50
2022/10/12 05:52:47;;;;;;;6.70;4.20;;;7.60;99.90;;;;;;5032346;28;20920;-47
2022/10/12 05:55:15;;;;;;;5.47;4.17;;;7.60;99.90;;;;;;5044940;28;20198;-46
2022/10/12 05:57:42;;;;;;;5.87;4.20;;;7.60;99.90;;;;;;5027536;28;20218;-50
2022/10/12 06:00:09;;;;;;;5.50;3.77;;;7.50;99.90;;;;;;5044505;28;20211;-52
2022/10/12 06:02:39;;;;;;;9.47;4.17;;;7.50;99.90;;;;;;5033912;28;20200;-48
2022/10/12 06:05:06;;;;;;;9.57;4.63;;;7.40;99.90;;;;;;5040177;28;20669;-49
2022/10/12 06:07:33;;;;;;;4.87;3.47;;;7.50;99.90;;;;;;5037097;28;20226;-48
2022/10/12 06:10:00;;;;;;;9.17;4.07;;;7.50;99.90;;;;;;5032258;28;20215;-47
2022/10/12 06:12:28;;;;;;;9.20;4.03;;;7.40;99.90;;;;;;5035748;28;20192;-50
2022/10/12 06:14:55;;;;;;;5.43;4.17;;;7.40;99.90;;;;;;5029974;28;20214;-50
2022/10/12 06:17:22;;;;;;;6.70;3.43;;;7.40;99.90;;;;;;5035363;28;20199;-48
2022/10/12 06:19:49;;;;;;;7.33;3.63;;;7.50;99.90;;;;;;5031690;28;20219;-49
2022/10/12 06:22:15;;;;;;;6.63;4.00;;;7.50;99.90;;;;;;5030075;28;20218;-48
2022/10/12 06:24:42;;;;;;;6.93;3.80;;;7.50;99.90;;;;;;5035389;28;20203;-48
2022/10/12 06:27:09;;;;;;;7.77;3.80;;;7.50;99.90;;;;;;5036285;28;20687;-47
2022/10/12 06:29:38;;;;;;;8.37;3.60;;;7.50;99.90;;;;;;5026322;28;20234;-48
2022/10/12 06:32:05;;;;;;;5.77;4.30;;;7.60;99.90;;;;;;5038414;28;20200;-47
2022/10/12 06:34:31;;;;;;;7.83;4.03;;;7.70;99.90;;;;;;5030858;28;20187;-49
2022/10/12 06:36:58;;;;;;;9.27;4.17;;;7.60;99.90;;;;;;5031574;28;20663;-47
2022/10/12 06:39:25;;;;;;;5.03;3.73;;;7.70;99.90;;;;;;5031700;28;20215;-49
2022/10/12 06:41:53;;;;;;;9.60;4.97;;;7.70;99.90;;;;;;5035333;28;20234;-48
2022/10/12 06:44:21;;;;;;;4.87;4.23;;;7.70;99.90;;;;;;5029286;28;20279;-48
2022/10/12 06:46:49;;;;;;;6.80;3.90;;;7.70;99.90;;;;;;5033172;28;20228;-48
2022/10/12 06:49:17;;;;;;;7.50;4.60;;;7.70;99.90;;;;;;5030170;28;20227;-50
2022/10/12 06:51:43;;;;;;;9.57;4.60;;;7.70;99.90;;;;;;5036033;28;20220;-51
2022/10/12 06:54:10;;;;;;;7.03;4.60;;;7.80;99.90;;;;;;5026313;28;20293;-53
2022/10/12 06:56:38;;;;;;;10.77;5.20;;;7.90;99.90;;;;;;5034488;28;20203;-47
2022/10/12 06:59:05;;;;;;;12.67;5.03;;;8.00;99.90;;;;;;5034523;28;20901;-46
2022/10/12 07:01:32;;;;;;;10.67;4.40;;;8.10;99.90;;;;;;5014507;28;20207;-46
2022/10/12 07:04:00;;;;;;;9.07;4.13;;;8.20;99.90;;;;;;5028244;28;20204;-46
2022/10/12 07:06:27;;;;;;;10.13;4.70;;;8.30;99.90;;;;;;5029464;28;20199;-46
2022/10/12 07:08:54;;;;;;;10.80;4.30;;;8.30;99.90;;;;;;5033223;28;20230;-48
2022/10/12 07:11:22;;;;;;;6.87;4.60;;;8.40;99.90;;;;;;5021344;28;20234;-49
2022/10/12 07:13:49;;;;;;;14.83;4.70;;;8.40;99.90;;;;;;5034927;28;20210;-49
2022/10/12 07:16:16;;;;;;;10.80;4.17;;;8.40;99.90;;;;;;5009689;28;20582;-45
2022/10/12 07:18:43;;;;;;;8.93;4.20;;;8.50;99.90;;;;;;5031576;28;20200;-50
2022/10/12 07:21:10;;;;;;;11.73;4.20;;;8.60;99.90;;;;;;5027152;28;20199;-46
2022/10/12 07:23:37;;;;;;;11.00;4.37;;;8.70;99.90;;;;;;5027958;28;20203;-49
2022/10/12 07:26:05;;;;;;;8.83;3.93;;;8.80;99.90;;;;;;5022783;28;20195;-48
2022/10/12 07:28:33;;;;;;;12.73;4.97;;;8.90;99.90;;;;;;5039002;28;20207;-47
2022/10/12 07:31:02;;;;;;;5.27;3.83;;;9.00;99.90;;;;;;5011590;28;20215;-45
2022/10/12 07:33:32;;;;;;;7.43;4.33;;;9.10;99.90;;;;;;5037682;28;20258;-48
2022/10/12 07:36:00;;;;;;;7.63;3.67;;;9.30;99.90;;;;;;5025608;28;20204;-51
2022/10/12 07:38:28;;;;;;;8.17;4.53;;;9.40;99.90;;;;;;5030585;28;20784;-52
2022/10/12 07:40:58;;;;;;;10.60;4.83;;;9.50;99.90;;;;;;5024298;28;20878;-48
2022/10/12 07:43:25;;;;;;;10.23;5.33;;;9.60;99.90;;;;;;5040143;28;20289;-48
2022/10/12 07:45:52;;;;;;;7.80;4.27;;;9.70;99.90;;;;;;5018628;28;20199;-47
2022/10/12 07:48:18;;;;;;;10.50;4.47;;;9.70;99.90;;;;;;5033238;28;20207;-46
2022/10/12 07:50:45;;;;;;;9.57;4.20;;;9.90;99.90;;;;;;5032145;28;20219;-50
2022/10/12 07:53:12;;;;;;;8.33;4.40;;;10.00;99.90;;;;;;5036968;28;20191;-48
2022/10/12 07:55:41;;;;;;;14.67;4.87;;;10.00;99.90;;;;;;5027080;28;20239;-50
2022/10/12 07:58:07;;;;;;;15.80;4.30;;;10.10;99.90;;;;;;5033298;28;20343;-48
2022/10/12 08:00:34;;;;;;;11.33;4.50;;;10.20;99.90;;;;;;5036316;28;20221;-45
2022/10/12 08:03:01;;;;;;;6.00;3.57;;;10.30;99.90;;;;;;5024683;28;20924;-46
2022/10/12 08:05:27;;;;;;;11.20;4.73;;;10.40;99.90;;;;;;5037692;28;20195;-45
2022/10/12 08:07:54;;;;;;;12.10;4.80;;;10.50;99.90;;;;;;5033595;28;20202;-46
2022/10/12 08:10:21;;;;;;;12.27;4.97;;;10.60;99.90;;;;;;5041106;28;20207;-47
2022/10/12 08:12:49;;;;;;;11.53;4.70;;;10.60;99.90;;;;;;5025224;28;20218;-49
2022/10/12 08:15:16;;;;;;;14.80;4.87;;;10.70;99.90;;;;;;5028430;28;20225;-50
2022/10/12 08:17:43;;;;;;;11.10;4.23;;;10.90;99.90;;;;;;5023870;28;20200;-51
2022/10/12 08:20:13;;;;;;;9.70;4.87;;;11.00;99.90;;;;;;5028116;28;20215;-46
2022/10/12 08:22:39;;;;;;;13.63;3.80;;;11.10;99.90;;;;;;5033297;28;20667;-50
2022/10/12 08:25:08;;;;;;;10.13;4.30;;;11.30;99.90;;;;;;5026180;28;20219;-48
2022/10/12 08:27:35;;;;;;;10.37;3.77;;;11.40;99.90;;;;;;5029186;28;21223;-46
2022/10/12 08:30:03;;;;;;;8.17;3.43;;;11.50;99.90;;;;;;5029909;28;20265;-45
2022/10/12 08:32:31;;;;;;;8.17;3.50;;;11.70;99.90;;;;;;5034904;28;20214;-45
2022/10/12 08:34:58;;;;;;;10.63;3.67;;;11.80;99.90;;;;;;5018760;28;20203;-47
2022/10/12 08:37:25;;;;;;;11.70;3.73;;;11.90;99.90;;;;;;5028485;28;20660;-47
2022/10/12 08:39:51;;;;;;;14.00;4.07;;;12.10;99.90;;;;;;5035269;28;20211;-50
2022/10/12 08:42:39;;;;;;;10.73;3.77;;;12.20;99.90;;;;;;5036123;28;20199;-49
2022/10/12 08:45:23;;;;;;;7.43;3.30;;;12.30;99.90;;;;;;5036499;28;20180;-51
2022/10/12 08:47:57;;;;;;;9.50;3.23;;;12.40;99.90;;;;;;5031053;28;20534;-48
2022/10/12 08:50:31;;;;;;;14.53;3.33;;;12.40;99.90;;;;;;5026326;28;20219;-48
2022/10/12 08:53:03;;;;;;;13.23;3.37;;;12.50;99.90;;;;;;5030764;28;20867;-45
2022/10/12 08:55:36;;;;;;;6.93;2.53;;;12.50;99.90;;;;;;5027112;28;20634;-48
2022/10/12 08:58:03;;;;;;;11.13;3.43;;;12.60;99.90;;;;;;5026692;28;20214;-45
2022/10/12 09:00:34;;;;;;;5.80;2.70;;;12.70;99.90;;;;;;5028249;28;20696;-52
2022/10/12 09:03:13;;;;;;;5.80;2.87;;;12.70;99.90;;;;;;5023736;28;20559;-47
2022/10/12 09:05:45;;;;;;;11.43;2.77;;;12.90;99.90;;;;;;5022932;28;20891;-46
2022/10/12 09:08:22;;;;;;;9.13;2.63;;;13.00;99.90;;;;;;5032924;28;20309;-50
2022/10/12 09:11:00;;;;;;;14.27;2.93;;;13.20;99.90;;;;;;5014024;28;20229;-50
2022/10/12 09:13:40;;;;;;;9.60;2.90;;;13.30;99.90;;;;;;5026854;28;20915;-47
2022/10/12 09:16:19;;;;;;;9.80;3.50;;;13.30;99.90;;;;;;5036844;28;20199;-47
2022/10/12 09:18:49;;;;;;;11.00;2.30;;;13.40;99.90;;;;;;5031929;28;20226;-50
2022/10/12 09:21:18;;;;;;;7.30;2.43;;;13.40;99.90;;;;;;5009950;28;20974;-51
2022/10/12 09:23:45;;;;;;;6.40;1.93;;;13.40;99.90;;;;;;5035112;28;20196;-45
2022/10/12 09:26:16;;;;;;;8.00;2.50;;;13.50;99.90;;;;;;5033214;28;20206;-48
2022/10/12 09:28:44;;;;;;;9.90;2.47;;;13.50;99.90;;;;;;5037028;28;20257;-46
2022/10/12 09:31:25;;;;;;;6.63;2.33;;;13.60;99.90;;;;;;5032758;28;20219;-48
2022/10/12 09:33:56;;;;;;;7.20;2.80;;;13.60;99.90;;;;;;5035166;28;20196;-53
2022/10/12 09:36:27;;;;;;;5.67;2.00;;;13.70;99.90;;;;;;5019894;28;22139;-47
2022/10/12 09:38:55;;;;;;;9.63;2.20;;;13.80;99.90;;;;;;5038485;28;20227;-48
2022/10/12 09:41:24;;;;;;;6.83;1.93;;;13.80;99.90;;;;;;5035624;28;20385;-46
2022/10/12 09:43:54;;;;;;;4.57;1.93;;;13.90;99.90;;;;;;5033183;28;20199;-47
2022/10/12 09:46:28;;;;;;;6.97;2.37;;;13.90;99.90;;;;;;5036101;28;20199;-49
2022/10/12 09:48:59;;;;;;;9.43;2.60;;;14.00;99.90;;;;;;5033353;28;20215;-48
2022/10/12 09:51:28;;;;;;;10.53;2.73;;;14.00;99.90;;;;;;5041894;28;20215;-52
2022/10/12 09:53:57;;;;;;;11.60;3.00;;;14.00;99.90;;;;;;5016118;28;20203;-48
2022/10/12 09:56:28;;;;;;;3.93;1.70;;;;;;;;;;5042462;28;20191;-46
2022/10/12 09:59:00;;;;;;;6.77;2.40;;;14.20;99.90;;;;;;5031548;28;20326;-48
2022/10/12 10:01:30;;;;;;;9.00;1.97;;;14.20;99.90;;;;;;5028756;28;20200;-49
2022/10/12 10:04:10;;;;;;;5.97;1.97;;;14.30;99.90;;;;;;5029022;28;20812;-52
2022/10/12 10:06:38;;;;;;;10.90;1.90;;;14.30;99.90;;;;;;5028565;28;21160;-47
2022/10/12 10:09:05;;;;;;;7.37;2.40;;;14.30;99.90;;;;;;5018506;28;20747;-46
2022/10/12 10:11:32;;;;;;;6.83;1.90;;;14.30;99.90;;;;;;5039148;28;20250;-45
2022/10/12 10:14:01;;;;;;;10.23;1.83;;;14.30;99.90;;;;;;5030231;28;21433;-47
2022/10/12 10:16:30;;;;;;;9.03;2.30;;;14.40;99.90;;;;;;5035024;28;20207;-46
2022/10/12 10:19:01;;;;;;;5.80;1.93;;;14.40;99.90;;;;;;5030321;28;20869;-50
2022/10/12 10:21:32;;;;;;;5.60;2.13;;;14.50;99.90;;;;;;5033360;28;20211;-48
2022/10/12 10:24:01;;;;;;;6.23;1.60;;;14.60;99.90;;;;;;5015656;28;20203;-47
2022/10/12 10:26:30;;;;;;;8.53;2.00;;;14.50;99.90;;;;;;5033389;28;20274;-49
2022/10/12 10:29:15;;;;;;;5.33;1.53;;;14.50;99.90;;;;;;5025575;28;20223;-46
2022/10/12 10:31:46;;;;;;;7.30;1.97;;;14.50;99.90;;;;;;5024551;28;20410;-49
2022/10/12 10:34:20;;;;;;;9.00;1.70;;;14.60;99.90;;;;;;5030446;28;20206;-50
2022/10/12 10:36:49;;;;;;;4.83;1.53;;;14.70;99.90;;;;;;5039572;28;20207;-49
2022/10/12 10:39:21;;;;;;;4.47;1.23;;;14.70;99.90;;;;;;5017263;28;20232;-47
2022/10/12 10:41:49;;;;;;;7.53;2.20;;;14.70;99.90;;;;;;5027615;28;20204;-47
2022/10/12 10:44:35;;;;;;;9.57;1.70;;;14.70;99.90;;;;;;5023451;28;20273;-50
2022/10/12 10:47:09;;;;;;;5.07;1.53;;;14.80;99.90;;;;;;5029033;28;20707;-44
2022/10/12 10:49:39;;;;;;;5.23;1.90;;;14.80;99.90;;;;;;5032616;28;20230;-44
2022/10/12 10:52:21;;;;;;;4.17;1.20;;;14.90;99.90;;;;;;5040997;28;20939;-45
2022/10/12 10:54:49;;;;;;;4.93;1.70;;;14.90;99.90;;;;;;5041142;28;20615;-49
2022/10/12 10:57:20;;;;;;;6.10;1.70;;;15.00;99.90;;;;;;5024086;28;20296;-46
2022/10/12 10:59:52;;;;;;;6.73;1.57;;;15.00;99.90;;;;;;5044692;28;20215;-45
2022/10/12 11:02:28;;;;;;;5.63;1.47;;;15.00;99.90;;;;;;5033235;28;20207;-45
2022/10/12 11:05:01;;;;;;;5.77;1.80;;;15.00;99.90;;;;;;5033475;28;20272;-45
2022/10/12 11:07:35;;;;;;;8.30;1.83;;;15.00;99.90;;;;;;5033741;28;20230;-46
2022/10/12 11:10:08;;;;;;;4.47;1.53;;;15.10;99.90;;;;;;5044582;28;20222;-44
2022/10/12 11:12:40;;;;;;;6.20;1.63;;;15.20;99.90;;;;;;5027625;28;20219;-46
2022/10/12 11:15:16;;;;;;;4.77;1.33;;;15.20;99.90;;;;;;5043815;28;20727;-44
2022/10/12 11:17:48;;;;;;;7.10;1.53;;;15.20;99.90;;;;;;5037407;28;20236;-47
2022/10/12 11:20:30;;;;;;;4.03;1.87;;;15.20;99.90;;;;;;5044577;28;20207;-51
2022/10/12 11:23:02;;;;;;;7.13;2.17;;;15.20;99.90;;;;;;5041538;28;20249;-45
2022/10/12 11:25:33;;;;;;;7.13;1.00;;;15.20;99.90;;;;;;5026970;28;20204;-47
2022/10/12 11:28:00;;;;;;;6.87;1.57;;;15.20;99.90;;;;;;5040842;28;20198;-45
2022/10/12 11:30:36;;;;;;;4.77;1.53;;;15.30;99.90;;;;;;5037592;28;20221;-47
2022/10/12 11:33:11;;;;;;;4.03;1.30;;;15.20;99.90;;;;;;5042103;28;20303;-47
2022/10/12 11:35:42;;;;;;;6.43;1.30;;;15.30;99.90;;;;;;5034728;28;20292;-44
2022/10/12 11:38:16;;;;;;;4.17;1.23;;;15.30;99.90;;;;;;5039623;28;20668;-44
2022/10/12 11:40:47;;;;;;;6.67;1.63;;;15.40;99.90;;;;;;5037285;28;20230;-49
2022/10/12 11:43:19;;;;;;;8.27;2.00;;;15.40;99.90;;;;;;5028723;28;20242;-46
2022/10/12 11:45:49;;;;;;;6.10;1.37;;;15.40;99.90;;;;;;5037344;28;20201;-45
2022/10/12 11:48:22;;;;;;;5.20;2.10;;;15.40;99.90;;;;;;5033826;28;20208;-47
2022/10/12 11:50:51;;;;;;;5.20;1.40;;;15.40;99.90;;;;;;5036850;28;20976;-44
2022/10/12 11:53:23;;;;;;;3.40;1.30;;;15.40;99.90;;;;;;5037651;28;20215;-49
2022/10/12 11:56:02;;;;;;;3.50;1.10;;;15.40;99.90;;;;;;5037220;28;20538;-44
2022/10/12 11:58:32;;;;;;;4.33;1.47;;;15.50;99.90;;;;;;5026066;28;20211;-48
2022/10/12 12:01:29;;;;;;;4.03;1.33;;;15.60;99.90;;;;;;5041148;28;20203;-44
2022/10/12 12:04:17;;;;;;;3.97;1.07;;;15.60;99.90;;;;;;5031003;28;20234;-45
2022/10/12 12:06:59;;;;;;;3.90;1.70;;;15.60;99.90;;;;;;5041252;28;20203;-45
2022/10/12 12:09:42;;;;;;;5.67;1.30;;;15.70;99.90;;;;;;5035323;28;20230;-44
2022/10/12 12:12:28;;;;;;;6.70;1.30;;;15.70;99.90;;;;;;5024381;28;20905;-47
2022/10/12 12:15:18;;;;;;;7.77;2.30;;;15.70;99.90;;;;;;5041509;28;20286;-49
2022/10/12 12:18:04;;;;;;;5.60;1.30;;;15.70;99.90;;;;;;5037709;28;21011;-44
2022/10/12 12:21:01;;;;;;;6.43;1.37;;;15.70;99.90;;;;;;5043094;28;20290;-47
2022/10/12 12:23:32;;;;;;;3.23;1.20;;;15.80;99.90;;;;;;5040930;28;20722;-50
2022/10/12 12:26:13;;;;;;;3.20;1.50;;;15.80;99.90;;;;;;5036714;28;20200;-48
2022/10/12 12:28:43;;;;;;;4.20;1.40;;;15.80;99.90;;;;;;5026296;28;20700;-45
2022/10/12 12:31:14;;;;;;;6.60;1.33;;;15.80;99.90;;;;;;5038253;28;20199;-48
2022/10/12 12:33:44;;;;;;;3.10;2.17;;;15.90;99.90;;;;;;5032143;28;20687;-47
2022/10/12 12:36:16;;;;;;;5.23;1.57;;;15.90;99.90;;;;;;5040110;28;20417;-46
2022/10/12 12:38:50;;;;;;;5.57;1.70;;;15.80;99.90;;;;;;5024135;28;20199;-46
2022/10/12 12:41:18;;;;;;;7.07;2.20;;;15.80;99.90;;;;;;5025841;28;20203;-48
2022/10/12 12:44:00;;;;;;;6.70;1.60;;;;;;;;;;5017723;28;20284;-44
2022/10/12 12:47:10;;;;;;;4.00;1.10;;;16.00;99.90;;;;;;5041698;28;20233;-47
2022/10/12 12:49:43;;;;;;;4.77;1.80;;;16.10;99.90;;;;;;5022408;28;20725;-45
2022/10/12 12:52:16;;;;;;;5.93;1.57;;;16.30;99.90;;;;;;5032760;28;20253;-44
2022/10/12 12:55:04;;;;;;;4.77;1.77;;;16.30;99.90;;;;;;5043106;28;20187;-46
2022/10/12 12:57:47;;;;;;;6.07;2.23;;;16.40;99.90;;;;;;5036329;28;20222;-48
2022/10/12 13:00:19;;;;;;;5.67;1.40;;;16.40;99.90;;;;;;5024216;28;20227;-47
2022/10/12 13:03:18;;;;;;;4.10;1.20;;;16.30;99.90;;;;;;5041513;28;20191;-45
2022/10/12 13:06:27;;;;;;;4.57;1.50;;;16.30;99.90;;;;;;5025368;28;20203;-44